createdAt,value
2022-11-24T00:01:48.047Z,101887.88
2022-11-24T00:04:16.976Z,101889.56
2022-11-24T00:06:45.951Z,101876.22
2022-11-24T00:09:15.015Z,101886.34
2022-11-24T00:11:43.871Z,101866.03
2022-11-24T00:14:12.816Z,101893.75
2022-11-24T00:16:41.732Z,101897.88
2022-11-24T00:19:12.007Z,101886.63
2022-11-24T00:21:43.604Z,101931.00
2022-11-24T00:24:13.169Z,101897.66
2022-11-24T00:26:41.872Z,101894.22
2022-11-24T00:29:12.580Z,101896.28
2022-11-24T00:31:43.235Z,101884.84
2022-11-24T00:34:13.867Z,101854.88
2022-11-24T00:36:43.634Z,101844.66
2022-11-24T00:39:14.979Z,101823.94
2022-11-24T00:41:44.690Z,101871.09
2022-11-24T00:44:13.608Z,101859.69
2022-11-24T00:46:42.776Z,101873.50
2022-11-24T00:49:11.883Z,101855.59
2022-11-24T00:51:40.763Z,101810.59
2022-11-24T00:54:09.544Z,101860.56
2022-11-24T00:56:38.439Z,101823.50
2022-11-24T00:59:07.318Z,101830.19
2022-11-24T01:01:37.035Z,101857.47
2022-11-24T01:04:06.484Z,101866.50
2022-11-24T01:06:36.981Z,101826.41
2022-11-24T01:09:05.779Z,101848.22
2022-11-24T01:11:55.177Z,101839.16
2022-11-24T01:14:25.261Z,101827.38
2022-11-24T01:16:55.053Z,101855.38
2022-11-24T01:19:24.633Z,101845.56
2022-11-24T01:21:53.754Z,101807.06
2022-11-24T01:24:22.569Z,101829.31
2022-11-24T01:26:51.571Z,101840.78
2022-11-24T01:29:20.331Z,101814.13
2022-11-24T01:31:49.098Z,101805.09
2022-11-24T01:34:18.013Z,101801.06
2022-11-24T01:36:47.132Z,101734.09
2022-11-24T01:39:18.262Z,101793.06
2022-11-24T01:41:47.254Z,101811.88
2022-11-24T01:44:28.304Z,101792.81
2022-11-24T01:47:24.795Z,101831.16
2022-11-24T01:49:59.076Z,101796.63
2022-11-24T01:52:33.236Z,101807.00
2022-11-24T01:55:10.540Z,101809.16
2022-11-24T01:57:50.806Z,101791.41
2022-11-24T02:00:19.654Z,101819.63
2022-11-24T02:02:48.586Z,101798.78
2022-11-24T02:05:20.073Z,101816.34
2022-11-24T02:07:50.094Z,101801.78
2022-11-24T02:10:18.882Z,101798.97
2022-11-24T02:12:50.087Z,101714.47
2022-11-24T02:15:20.544Z,101793.13
2022-11-24T02:17:49.076Z,101806.00
2022-11-24T02:20:20.176Z,101806.72
2022-11-24T02:22:57.935Z,101823.56
2022-11-24T02:25:45.895Z,101781.00
2022-11-24T02:28:19.528Z,101714.00
2022-11-24T02:30:48.442Z,101799.59
2022-11-24T02:33:20.452Z,101784.00
2022-11-24T02:35:48.948Z,101785.69
2022-11-24T02:38:17.620Z,101781.94
2022-11-24T02:40:50.125Z,101784.34
2022-11-24T02:43:23.083Z,101811.00
2022-11-24T02:45:51.733Z,101806.31
2022-11-24T02:48:20.308Z,101780.81
2022-11-24T02:50:49.158Z,101806.47
2022-11-24T02:53:17.748Z,101811.97
2022-11-24T02:55:46.512Z,101775.66
2022-11-24T02:58:15.745Z,101776.28
2022-11-24T03:00:44.400Z,101804.94
2022-11-24T03:03:13.077Z,101789.41
2022-11-24T03:05:41.857Z,101813.94
2022-11-24T03:08:10.355Z,101810.84
2022-11-24T03:10:38.976Z,101792.09
2022-11-24T03:13:07.534Z,101758.50
2022-11-24T03:15:37.168Z,101784.47
2022-11-24T03:18:05.720Z,101785.84
2022-11-24T03:20:34.608Z,101775.47
2022-11-24T03:23:03.218Z,101797.19
2022-11-24T03:25:32.146Z,101814.91
2022-11-24T03:28:00.777Z,101796.91
2022-11-24T03:30:29.480Z,101777.84
2022-11-24T03:32:58.172Z,101782.75
2022-11-24T03:35:26.825Z,101791.03
2022-11-24T03:37:55.297Z,101823.94
2022-11-24T03:40:23.916Z,101712.63
2022-11-24T03:42:52.584Z,101782.66
2022-11-24T03:48:12.571Z,101763.50
2022-11-24T03:50:41.148Z,101756.59
2022-11-24T03:53:10.505Z,101734.88
2022-11-24T03:55:39.115Z,101765.72
2022-11-24T03:58:07.603Z,101728.63
2022-11-24T04:00:36.280Z,101737.56
2022-11-24T04:03:04.828Z,101737.72
2022-11-24T04:05:34.219Z,101720.00
2022-11-24T04:08:04.327Z,101738.38
2022-11-24T04:10:39.349Z,101741.03
2022-11-24T04:13:15.026Z,101753.78
2022-11-24T04:15:45.347Z,101743.13
2022-11-24T04:18:14.810Z,101770.66
2022-11-24T04:20:44.810Z,101778.03
2022-11-24T04:23:13.490Z,101720.06
2022-11-24T04:25:44.144Z,101763.69
2022-11-24T04:28:13.339Z,101706.56
2022-11-24T04:30:45.330Z,101743.81
2022-11-24T04:33:14.503Z,101748.13
2022-11-24T04:35:46.009Z,101714.38
2022-11-24T04:39:19.460Z,101714.91
2022-11-24T04:41:04.639Z,101710.16
2022-11-24T04:43:39.125Z,101731.69
2022-11-24T04:46:12.141Z,101721.91
2022-11-24T04:48:40.673Z,101727.81
2022-11-24T04:51:09.442Z,101725.41
2022-11-24T04:53:38.283Z,101647.63
2022-11-24T04:56:07.680Z,101734.13
2022-11-24T04:58:36.859Z,101723.88
2022-11-24T05:01:09.253Z,101730.34
2022-11-24T05:03:38.361Z,101717.94
2022-11-24T05:06:09.615Z,101712.00
2022-11-24T05:08:41.211Z,101693.94
2022-11-24T05:11:10.374Z,101723.25
2022-11-24T05:13:41.828Z,101708.41
2022-11-24T05:16:11.581Z,101716.09
2022-11-24T05:18:41.101Z,101695.50
2022-11-24T05:21:09.885Z,101711.00
2022-11-24T05:23:39.340Z,101717.09
2022-11-24T05:26:08.062Z,101721.69
2022-11-24T05:28:39.102Z,101699.34
2022-11-24T05:31:07.855Z,101711.88
2022-11-24T05:33:37.578Z,101666.75
2022-11-24T05:36:08.481Z,101711.34
2022-11-24T05:38:37.647Z,101704.06
2022-11-24T05:41:07.279Z,101669.22
2022-11-24T05:43:36.425Z,101671.59
2022-11-24T05:46:05.728Z,101672.66
2022-11-24T05:48:34.858Z,101668.44
2022-11-24T05:51:08.982Z,101686.06
2022-11-24T05:53:37.900Z,101662.84
2022-11-24T05:56:07.000Z,101634.19
2022-11-24T05:58:36.264Z,101654.44
2022-11-24T06:01:07.822Z,101663.84
2022-11-24T06:03:36.564Z,101655.09
2022-11-24T06:06:05.309Z,101667.78
2022-11-24T06:08:35.248Z,101677.91
2022-11-24T06:11:17.847Z,101669.06
2022-11-24T06:13:50.606Z,101650.63
2022-11-24T06:16:19.954Z,101582.31
2022-11-24T06:18:49.296Z,101664.91
2022-11-24T06:21:18.240Z,101633.56
2022-11-24T06:23:49.944Z,101636.34
2022-11-24T06:26:19.014Z,101646.19
2022-11-24T06:28:47.524Z,101642.66
2022-11-24T06:31:18.927Z,101608.25
2022-11-24T06:33:49.024Z,101615.72
2022-11-24T06:36:20.357Z,101634.72
2022-11-24T06:38:49.756Z,101606.75
2022-11-24T06:41:19.048Z,101609.28
2022-11-24T06:43:48.403Z,101614.47
2022-11-24T06:46:18.385Z,101620.63
2022-11-24T06:48:47.706Z,101625.31
2022-11-24T06:51:22.691Z,101604.47
2022-11-24T06:53:51.268Z,101540.00
2022-11-24T06:56:21.519Z,101602.78
2022-11-24T06:58:52.754Z,101601.53
2022-11-24T07:01:26.691Z,101608.72
2022-11-24T07:03:55.490Z,101625.28
2022-11-24T07:06:26.156Z,101601.16
2022-11-24T07:08:54.755Z,101598.13
2022-11-24T07:11:24.458Z,101599.34
2022-11-24T07:13:58.337Z,101595.91
2022-11-24T07:16:29.863Z,101612.22
2022-11-24T07:18:59.218Z,101591.94
2022-11-24T07:21:28.555Z,101597.72
2022-11-24T07:23:58.455Z,101556.38
2022-11-24T07:26:27.377Z,101545.09
2022-11-24T07:28:56.778Z,101546.56
2022-11-24T07:31:28.621Z,101573.47
2022-11-24T07:33:58.839Z,101571.72
2022-11-24T07:36:27.652Z,101546.25
2022-11-24T07:38:59.116Z,101564.94
2022-11-24T07:41:28.376Z,101536.59
2022-11-24T07:43:57.487Z,101548.25
2022-11-24T07:46:26.474Z,101525.88
2022-11-24T07:48:55.730Z,101525.09
2022-11-24T07:51:24.937Z,101536.06
2022-11-24T07:53:54.139Z,101543.75
2022-11-24T07:56:22.739Z,101538.59
2022-11-24T07:58:53.221Z,101543.03
2022-11-24T08:01:22.660Z,101525.19
2022-11-24T08:03:51.532Z,101534.38
2022-11-24T08:06:32.556Z,101508.53
2022-11-24T08:09:07.575Z,101499.84
2022-11-24T08:11:37.063Z,101512.09
2022-11-24T08:14:07.697Z,101512.53
2022-11-24T08:16:36.443Z,101514.22
2022-11-24T08:19:05.770Z,101422.50
2022-11-24T08:21:34.517Z,101475.69
2022-11-24T08:24:03.118Z,101423.97
2022-11-24T08:26:32.088Z,101475.19
2022-11-24T08:29:00.961Z,101500.34
2022-11-24T08:31:39.449Z,101475.09
2022-11-24T08:34:08.259Z,101478.81
2022-11-24T08:36:37.302Z,101481.06
2022-11-24T08:39:06.566Z,101474.75
2022-11-24T08:41:36.146Z,101485.03
2022-11-24T08:44:05.061Z,101477.03
2022-11-24T08:46:33.953Z,101451.28
2022-11-24T08:49:02.769Z,101475.72
2022-11-24T08:51:31.858Z,101443.94
2022-11-24T08:54:02.403Z,101447.25
2022-11-24T08:56:34.089Z,101446.13
2022-11-24T08:59:03.401Z,101428.03
2022-11-24T09:01:32.240Z,101430.88
2022-11-24T09:04:01.260Z,101448.31
2022-11-24T09:06:33.813Z,101429.13
2022-11-24T09:09:02.760Z,101421.97
2022-11-24T09:11:34.494Z,101442.41
2022-11-24T09:14:03.999Z,101363.25
2022-11-24T09:16:32.628Z,101419.47
2022-11-24T09:19:04.190Z,101400.31
2022-11-24T09:21:37.724Z,101416.38
2022-11-24T09:24:08.551Z,101409.53
2022-11-24T09:26:44.756Z,101414.84
2022-11-24T09:29:16.580Z,101420.13
2022-11-24T09:31:45.928Z,101423.78
2022-11-24T09:34:16.706Z,101390.06
2022-11-24T09:36:45.606Z,101415.53
2022-11-24T09:39:14.589Z,101334.34
2022-11-24T09:42:02.482Z,101414.31
2022-11-24T09:44:49.165Z,101403.69
2022-11-24T09:47:39.512Z,101403.94
2022-11-24T09:50:25.069Z,101394.78
2022-11-24T09:52:53.650Z,101397.41
2022-11-24T09:55:38.116Z,101395.53
2022-11-24T09:58:15.382Z,101385.41
2022-11-24T10:00:44.412Z,101352.44
2022-11-24T10:03:46.104Z,101358.50
2022-11-24T10:06:17.724Z,101364.00
2022-11-24T10:09:27.227Z,101359.69
2022-11-24T10:12:11.397Z,101355.38
2022-11-24T10:14:58.558Z,101350.00
2022-11-24T10:17:35.907Z,101342.28
2022-11-24T10:20:07.222Z,101307.34
2022-11-24T10:22:59.475Z,101247.50
2022-11-24T10:25:59.155Z,101323.56
2022-11-24T10:28:40.733Z,101316.19
2022-11-24T10:31:41.483Z,101299.19
2022-11-24T10:34:21.438Z,101300.44
2022-11-24T10:37:07.285Z,101318.78
2022-11-24T10:39:36.358Z,101321.09
2022-11-24T10:42:20.171Z,101321.22
2022-11-24T10:45:16.021Z,101225.28
2022-11-24T10:47:46.205Z,101305.50
2022-11-24T10:50:28.135Z,101308.34
2022-11-24T10:53:01.754Z,101287.22
2022-11-24T10:56:06.349Z,101294.16
2022-11-24T10:58:38.680Z,101293.69
2022-11-24T11:01:16.452Z,101294.44
2022-11-24T11:03:53.155Z,101289.38
2022-11-24T11:06:41.337Z,101203.66
2022-11-24T11:09:10.159Z,101271.75
2022-11-24T11:11:40.747Z,101285.00
2022-11-24T11:14:13.901Z,101226.59
2022-11-24T11:16:47.138Z,101249.59
2022-11-24T11:19:58.476Z,101276.72
2022-11-24T11:22:30.094Z,101238.50
2022-11-24T11:25:13.227Z,101273.75
2022-11-24T11:27:43.140Z,101176.38
2022-11-24T11:36:15.067Z,101233.06
2022-11-24T11:38:45.322Z,101239.78
2022-11-24T11:41:31.439Z,101233.75
2022-11-24T11:44:38.642Z,101244.22
2022-11-24T11:47:44.268Z,101236.63
2022-11-24T11:50:18.459Z,101197.28
2022-11-24T11:53:11.668Z,101232.09
2022-11-24T11:56:12.589Z,101213.41
2022-11-24T11:59:20.124Z,101216.47
2022-11-24T12:02:03.894Z,101220.09
2022-11-24T12:04:50.954Z,101214.16
2022-11-24T12:07:47.063Z,101211.63
2022-11-24T12:10:34.281Z,101210.97
2022-11-24T12:13:18.238Z,101211.97
2022-11-24T12:15:52.636Z,101184.34
2022-11-24T12:18:59.721Z,101200.41
2022-11-24T12:22:03.709Z,101203.69
2022-11-24T12:24:39.099Z,101159.31
2022-11-24T12:27:22.592Z,101183.44
2022-11-24T12:30:12.152Z,101172.00
2022-11-24T12:36:46.430Z,101181.47
2022-11-24T12:39:36.737Z,101088.25
2022-11-24T12:42:12.034Z,101177.75
2022-11-24T12:45:02.256Z,101173.63
2022-11-24T12:47:48.324Z,101181.38
2022-11-24T12:50:19.432Z,101156.34
2022-11-24T13:10:46.910Z,101156.34
2022-11-24T13:13:17.209Z,101141.16
2022-11-24T13:16:35.076Z,101140.94
2022-11-24T13:18:57.805Z,101092.41
2022-11-24T13:21:33.444Z,101135.00
2022-11-24T13:24:24.194Z,101103.72
2022-11-24T13:27:15.876Z,101131.59
2022-11-24T13:29:51.477Z,101125.31
2022-11-24T13:32:40.184Z,101110.13
2022-11-24T13:35:17.730Z,101082.63
2022-11-24T13:37:53.182Z,101120.25
2022-11-24T13:40:23.378Z,101116.16
2022-11-24T13:42:58.473Z,101115.38
2022-11-24T13:45:43.861Z,101110.53
2022-11-24T13:48:23.205Z,101108.13
2022-11-24T13:50:52.284Z,101100.72
2022-11-24T13:53:33.215Z,101100.41
2022-11-24T13:56:14.454Z,101094.13
2022-11-24T13:58:44.199Z,101053.09
2022-11-24T14:01:36.483Z,101077.53
2022-11-24T14:04:43.302Z,101070.28
2022-11-24T14:07:15.634Z,101038.59
2022-11-24T14:09:51.224Z,101068.28
2022-11-24T14:12:32.172Z,101047.41
2022-11-24T14:15:30.714Z,101066.66
2022-11-24T14:18:02.514Z,101043.88
2022-11-24T14:20:31.769Z,101025.53
2022-11-24T14:23:01.549Z,101025.31
2022-11-24T14:25:33.023Z,101038.59
2022-11-24T14:28:02.510Z,101020.88
2022-11-24T14:30:31.327Z,101021.66
2022-11-24T14:33:05.081Z,101011.28
2022-11-24T14:35:37.043Z,101037.72
2022-11-24T14:38:07.080Z,101026.16
2022-11-24T14:40:51.610Z,101013.28
2022-11-24T14:43:23.443Z,101036.38
2022-11-24T14:45:54.175Z,101022.72
2022-11-24T14:48:30.195Z,101011.50
2022-11-24T14:51:21.860Z,101009.50
2022-11-24T14:53:57.332Z,101003.81
2022-11-24T14:56:32.835Z,101002.91
2022-11-24T14:59:02.286Z,101017.34
2022-11-24T15:01:36.944Z,100999.06
2022-11-24T15:07:32.718Z,101000.28
2022-11-24T15:10:03.433Z,100999.41
2022-11-24T15:12:41.855Z,100997.75
2022-11-24T15:15:16.273Z,100992.16
2022-11-24T15:17:55.133Z,100985.63
2022-11-24T15:20:46.475Z,100986.50
2022-11-24T15:23:32.453Z,100984.41
2022-11-24T15:26:04.525Z,100988.00
2022-11-24T15:28:34.325Z,100979.13
2022-11-24T15:31:13.357Z,100989.47
2022-11-24T15:33:43.194Z,100983.94
2022-11-24T15:36:17.624Z,100968.22
2022-11-24T15:38:46.556Z,100954.00
2022-11-24T15:41:22.628Z,100941.13
2022-11-24T15:43:51.971Z,100927.50
2022-11-24T15:46:21.076Z,100951.13
2022-11-24T15:48:49.907Z,100927.50
2022-11-24T15:51:18.916Z,100934.44
2022-11-24T15:54:00.059Z,100929.16
2022-11-24T15:56:35.906Z,100916.84
2022-11-24T15:59:05.662Z,100859.41
2022-11-24T16:01:35.607Z,100885.72
2022-11-24T16:04:05.553Z,100900.78
2022-11-24T16:06:34.586Z,100882.13
2022-11-24T16:09:03.762Z,100892.69
2022-11-24T16:11:32.752Z,100904.53
2022-11-24T16:14:02.175Z,100883.31
2022-11-24T16:16:31.062Z,100888.91
2022-11-24T16:19:01.405Z,100895.81
2022-11-24T16:21:30.346Z,100886.69
2022-11-24T16:23:59.401Z,100867.38
2022-11-24T16:26:28.339Z,100836.91
2022-11-24T16:28:57.288Z,100857.59
2022-11-24T16:31:26.284Z,100861.53
2022-11-24T16:33:55.395Z,100855.69
2022-11-24T16:36:24.664Z,100788.06
2022-11-24T16:38:53.643Z,100872.56
2022-11-24T16:41:22.481Z,100867.50
2022-11-24T16:43:51.437Z,100857.28
2022-11-24T16:46:25.207Z,100858.94
2022-11-24T16:49:00.488Z,100857.19
2022-11-24T16:51:34.394Z,100762.78
2022-11-24T16:54:04.623Z,100845.97
2022-11-24T16:56:34.032Z,100824.78
2022-11-24T16:59:03.090Z,100625.53
2022-11-24T17:01:33.504Z,100843.81
2022-11-24T17:04:06.998Z,100813.16
2022-11-24T17:06:38.394Z,100820.31
2022-11-24T17:09:08.526Z,100758.88
2022-11-24T17:11:38.333Z,100818.56
2022-11-24T17:14:12.404Z,100825.94
2022-11-24T17:16:41.293Z,100853.47
2022-11-24T17:19:17.039Z,100777.38
2022-11-24T17:21:51.898Z,100840.69
2022-11-24T17:24:20.835Z,100815.47
2022-11-24T17:26:54.442Z,100811.94
2022-11-24T17:29:23.791Z,100739.31
2022-11-24T17:31:53.501Z,100822.03
2022-11-24T17:34:23.243Z,100793.25
2022-11-24T17:36:52.842Z,100825.41
2022-11-24T17:39:25.735Z,100789.81
2022-11-24T17:41:54.274Z,100805.50
2022-11-24T17:44:22.976Z,100791.38
2022-11-24T17:46:51.906Z,100768.84
2022-11-24T17:49:22.009Z,100730.09
2022-11-24T17:51:51.319Z,100787.84
2022-11-24T17:57:09.422Z,100791.69
2022-11-24T17:59:37.922Z,100761.53
2022-11-24T18:02:06.670Z,100791.50
2022-11-24T18:04:35.536Z,100799.59
2022-11-24T18:07:04.628Z,100784.09
2022-11-24T18:09:33.308Z,100780.88
2022-11-24T18:12:01.893Z,100755.56
2022-11-24T18:14:30.789Z,100760.81
2022-11-24T18:17:00.531Z,100761.78
2022-11-24T18:19:29.341Z,100777.50
2022-11-24T18:21:58.683Z,100764.72
2022-11-24T18:24:27.680Z,100748.06
2022-11-24T18:26:56.740Z,100660.84
2022-11-24T18:29:25.566Z,100772.09
2022-11-24T18:31:54.436Z,100698.13
2022-11-24T18:34:25.462Z,100770.81
2022-11-24T18:36:54.557Z,100769.84
2022-11-24T18:39:23.593Z,100770.06
2022-11-24T18:41:52.301Z,100776.09
2022-11-24T18:44:21.815Z,100743.03
2022-11-24T18:46:51.648Z,100741.19
2022-11-24T18:49:20.377Z,100732.84
2022-11-24T18:51:49.720Z,100741.41
2022-11-24T18:54:18.787Z,100762.66
2022-11-24T18:56:47.687Z,100708.66
2022-11-24T18:59:16.558Z,100752.44
2022-11-24T19:01:46.862Z,100743.56
2022-11-24T19:04:16.089Z,100677.13
2022-11-24T19:06:44.892Z,100754.78
2022-11-24T19:09:16.735Z,100714.50
2022-11-24T19:11:47.141Z,100763.59
2022-11-24T19:14:18.894Z,100719.78
2022-11-24T19:16:51.562Z,100661.28
2022-11-24T19:19:20.487Z,100725.03
2022-11-24T19:21:49.313Z,100731.13
2022-11-24T19:24:18.096Z,100732.78
2022-11-24T19:26:46.941Z,100705.72
2022-11-24T19:29:16.362Z,100716.03
2022-11-24T19:31:45.156Z,100730.88
2022-11-24T19:34:14.799Z,100691.47
2022-11-24T19:36:44.008Z,100697.41
2022-11-24T19:39:17.380Z,100720.31
2022-11-24T19:41:46.069Z,100626.69
2022-11-24T19:44:15.127Z,100673.16
2022-11-24T19:46:43.897Z,100715.28
2022-11-24T19:49:13.277Z,100690.03
2022-11-24T19:51:42.196Z,100704.94
2022-11-24T19:54:15.335Z,100674.66
2022-11-24T19:56:44.312Z,100669.19
2022-11-24T19:59:15.528Z,100676.97
2022-11-24T20:01:44.861Z,100691.69
2022-11-24T20:04:16.397Z,100663.81
2022-11-24T20:06:47.472Z,100663.03
2022-11-24T20:09:18.932Z,100655.06
2022-11-24T20:11:49.500Z,100646.84
2022-11-24T20:14:19.899Z,100661.44
2022-11-24T20:16:49.643Z,100665.72
2022-11-24T20:19:19.511Z,100630.78
2022-11-24T20:21:50.791Z,100650.88
2022-11-24T20:24:23.021Z,100656.22
2022-11-24T20:26:59.718Z,100640.84
2022-11-24T20:29:30.030Z,100642.28
2022-11-24T20:32:01.966Z,100620.28
2022-11-24T20:34:31.277Z,100614.78
2022-11-24T20:37:00.615Z,100550.50
2022-11-24T20:39:29.524Z,100625.09
2022-11-24T20:41:58.404Z,100640.47
2022-11-24T20:44:28.466Z,100599.28
2022-11-24T20:47:00.501Z,100525.44
2022-11-24T20:49:29.453Z,100618.59
2022-11-24T20:51:58.248Z,100616.63
2022-11-24T20:54:27.753Z,100598.13
2022-11-24T20:56:56.728Z,100614.47
2022-11-24T20:59:26.605Z,100612.03
2022-11-24T21:01:56.510Z,100592.19
2022-11-24T21:04:28.528Z,100614.81
2022-11-24T21:06:57.521Z,100604.63
2022-11-24T21:09:28.000Z,100513.34
2022-11-24T21:11:57.218Z,100508.16
2022-11-24T21:14:28.207Z,100578.63
2022-11-24T21:17:00.187Z,100586.75
2022-11-24T21:19:29.384Z,100546.94
2022-11-24T21:21:58.317Z,100585.75
2022-11-24T21:24:27.182Z,100571.06
2022-11-24T21:26:56.367Z,100557.03
2022-11-24T21:29:26.319Z,100553.75
2022-11-24T21:31:55.323Z,100576.34
2022-11-24T21:34:24.501Z,100553.28
2022-11-24T21:36:53.220Z,100545.63
2022-11-24T21:39:22.076Z,100534.47
2022-11-24T21:41:51.101Z,100566.34
2022-11-24T21:44:19.979Z,100553.97
2022-11-24T21:46:54.310Z,100568.00
2022-11-24T21:49:24.523Z,100552.19
2022-11-24T21:51:56.354Z,100558.88
2022-11-24T21:54:25.320Z,100539.50
2022-11-24T21:56:55.247Z,100460.41
2022-11-24T21:59:24.285Z,100559.31
2022-11-24T22:01:55.909Z,100546.16
2022-11-24T22:04:24.879Z,100545.94
2022-11-24T22:06:54.402Z,100517.34
2022-11-24T22:09:23.233Z,100524.53
2022-11-24T22:11:53.888Z,100522.25
2022-11-24T22:14:23.087Z,100525.19
2022-11-24T22:16:52.113Z,100424.66
2022-11-24T22:19:21.484Z,100501.16
2022-11-24T22:21:50.307Z,100426.03
2022-11-24T22:24:21.799Z,100504.53
2022-11-24T22:26:55.445Z,100496.50
2022-11-24T22:29:24.149Z,100474.19
2022-11-24T22:31:53.015Z,100482.38
2022-11-24T22:34:22.189Z,100484.56
2022-11-24T22:36:51.130Z,100484.66
2022-11-24T22:39:20.227Z,100494.97
2022-11-24T22:41:49.158Z,100486.22
2022-11-24T22:44:18.422Z,100473.84
2022-11-24T22:46:47.091Z,100468.41
2022-11-24T22:49:16.298Z,100486.56
2022-11-24T22:51:45.210Z,100394.72
2022-11-24T22:54:17.243Z,100469.03
2022-11-24T22:56:45.906Z,100477.81
2022-11-24T22:59:15.502Z,100459.63
2022-11-24T23:01:44.500Z,100482.59
2022-11-24T23:04:13.543Z,100483.50
2022-11-24T23:06:45.076Z,100470.66
2022-11-24T23:09:14.060Z,100478.53
2022-11-24T23:11:43.012Z,100394.59
2022-11-24T23:14:16.539Z,100470.88
2022-11-24T23:16:45.955Z,100444.81
2022-11-24T23:19:14.995Z,100446.75
2022-11-24T23:21:43.956Z,100469.75
2022-11-24T23:24:12.758Z,100429.13
2022-11-24T23:26:42.121Z,100450.81
2022-11-24T23:29:11.444Z,100442.28
2022-11-24T23:31:42.758Z,100445.56
2022-11-24T23:34:14.160Z,100385.63
2022-11-24T23:36:43.081Z,100451.97
2022-11-24T23:39:14.315Z,100462.38
2022-11-24T23:41:43.477Z,100465.75
2022-11-24T23:44:12.300Z,100445.94
2022-11-24T23:46:40.999Z,100418.69
2022-11-24T23:49:09.892Z,100466.53
2022-11-24T23:51:42.808Z,100457.97
2022-11-24T23:54:12.068Z,100444.28
2022-11-24T23:56:40.909Z,100363.09
2022-11-24T23:59:12.783Z,100453.81
